Time;durP1;ratioP1;P1;durP2;ratioP2;P2;SDS_P1;SDS_P2;PMS_P1;PMS_P2;Temp;Humidity;BMP_temperature;BMP_pressure;BME280_temperature;BME280_humidity;BME280_pressure;Samples;Min_cycle;Max_cycle;Signal;HPM_P1;HPM_P2
2022/03/14 00:00:58;;;;;;;5.95;2.83;;;10.40;9.90;;;;;;5075772;28;20169;-51
2022/03/14 00:03:25;;;;;;;8.40;2.97;;;10.40;10.10;;;;;;5074443;28;20195;-51
2022/03/14 00:05:51;;;;;;;6.63;2.33;;;10.40;9.90;;;;;;5075878;28;20824;-51
2022/03/14 00:08:18;;;;;;;4.78;1.95;;;10.40;10.00;;;;;;5075286;28;20185;-51
2022/03/14 00:10:45;;;;;;;4.18;2.95;;;10.30;10.70;;;;;;5074242;28;20173;-51
2022/03/14 00:13:12;;;;;;;4.38;2.22;;;10.30;10.70;;;;;;5074005;28;20211;-51
2022/03/14 00:15:40;;;;;;;3.17;1.75;;;10.20;10.20;;;;;;5075720;28;20156;-50
2022/03/14 00:18:06;;;;;;;5.88;2.17;;;10.20;10.30;;;;;;5075405;28;20597;-50
2022/03/14 00:20:32;;;;;;;5.77;3.30;;;10.20;10.20;;;;;;5074117;28;20306;-51
2022/03/14 00:22:59;;;;;;;2.07;1.87;;;10.20;10.40;;;;;;5074706;28;20435;-51
2022/03/14 00:25:26;;;;;;;4.32;2.25;;;10.20;10.20;;;;;;5075235;28;20928;-51
2022/03/14 00:27:53;;;;;;;5.70;3.22;;;10.20;10.20;;;;;;5075207;28;20168;-51
2022/03/14 00:30:19;;;;;;;9.50;3.55;;;10.20;10.20;;;;;;5075160;28;20176;-51
2022/03/14 00:32:46;;;;;;;5.03;2.60;;;10.20;10.20;;;;;;5075312;28;20242;-51
2022/03/14 00:35:11;;;;;;;4.53;3.67;;;10.20;10.10;;;;;;5075000;28;20447;-51
2022/03/14 00:37:38;;;;;;;5.50;3.00;;;10.20;10.30;;;;;;5074921;28;20228;-51
2022/03/14 00:40:07;;;;;;;5.78;2.15;;;10.20;10.40;;;;;;5074892;28;20176;-51
2022/03/14 00:42:33;;;;;;;4.35;3.30;;;10.20;10.20;;;;;;5074232;28;20177;-51
2022/03/14 00:44:59;;;;;;;5.50;3.78;;;10.20;10.40;;;;;;5074552;28;20222;-51
2022/03/14 00:47:25;;;;;;;6.83;3.10;;;10.10;11.10;;;;;;5075059;28;20633;-51
2022/03/14 00:49:50;;;;;;;5.17;3.00;;;10.10;10.30;;;;;;5074834;28;20163;-51
2022/03/14 00:52:16;;;;;;;2.40;1.93;;;10.10;10.40;;;;;;5074679;28;20171;-51
2022/03/14 00:54:42;;;;;;;4.47;3.10;;;10.10;10.50;;;;;;5074753;28;20560;-51
2022/03/14 00:57:08;;;;;;;6.25;3.40;;;10.00;10.40;;;;;;5074510;28;20415;-51
2022/03/14 00:59:34;;;;;;;3.50;2.63;;;10.00;10.60;;;;;;5074682;28;20181;-51
2022/03/14 01:02:00;;;;;;;7.93;2.70;;;10.00;10.30;;;;;;5074616;28;20172;-51
2022/03/14 01:04:26;;;;;;;3.78;2.95;;;10.00;10.30;;;;;;5074467;28;20290;-51
2022/03/14 01:06:52;;;;;;;4.37;3.53;;;10.00;10.30;;;;;;5074397;28;20314;-51
2022/03/14 01:09:17;;;;;;;3.33;2.35;;;10.00;10.30;;;;;;5073354;28;20948;-51
2022/03/14 01:11:44;;;;;;;4.07;2.77;;;10.00;10.30;;;;;;5074497;28;20179;-51
2022/03/14 01:14:11;;;;;;;3.60;2.92;;;9.90;10.30;;;;;;5074020;28;20216;-51
2022/03/14 01:16:37;;;;;;;3.38;2.70;;;9.90;10.60;;;;;;5074206;28;20173;-51
2022/03/14 01:19:05;;;;;;;5.15;2.70;;;9.90;10.50;;;;;;5074168;28;20234;-51
2022/03/14 01:21:31;;;;;;;5.03;3.38;;;9.80;10.40;;;;;;5074267;28;20202;-51
2022/03/14 01:23:58;;;;;;;5.68;4.43;;;9.90;10.50;;;;;;5074344;28;20517;-51
2022/03/14 01:26:23;;;;;;;10.05;3.63;;;9.90;10.50;;;;;;5074051;28;20173;-51
2022/03/14 01:28:49;;;;;;;5.30;3.20;;;9.90;10.40;;;;;;5074051;28;20317;-51
2022/03/14 01:31:15;;;;;;;3.30;2.60;;;9.90;10.40;;;;;;5073967;28;20181;-51
2022/03/14 01:33:41;;;;;;;8.70;3.53;;;9.80;10.40;;;;;;5073997;28;20176;-51
2022/03/14 01:36:07;;;;;;;3.50;2.90;;;9.80;10.50;;;;;;5072616;28;20425;-51
2022/03/14 01:38:33;;;;;;;2.30;1.30;;;9.80;10.50;;;;;;5073862;28;20222;-51
2022/03/14 01:40:59;;;;;;;5.97;2.77;;;9.70;10.70;;;;;;5073896;28;20541;-51
2022/03/14 01:43:26;;;;;;;5.55;2.55;;;9.70;10.80;;;;;;5074095;28;20525;-51
2022/03/14 01:46:00;;;;;;;6.60;3.10;;;9.70;10.80;;;;;;5073841;28;20176;-51
2022/03/14 01:48:26;;;;;;;5.72;2.70;;;9.60;10.70;;;;;;5073755;28;20513;-51
2022/03/14 01:50:53;;;;;;;3.40;3.10;;;9.60;10.80;;;;;;5073979;28;20176;-51
2022/03/14 01:53:20;;;;;;;4.43;3.10;;;9.60;10.80;;;;;;5073667;28;20430;-51
2022/03/14 01:55:48;;;;;;;4.35;2.83;;;9.50;10.80;;;;;;5073371;28;20179;-51
2022/03/14 01:58:16;;;;;;;3.05;2.33;;;9.50;11.00;;;;;;5073544;28;20707;-51
2022/03/14 02:00:42;;;;;;;3.95;2.78;;;9.50;10.90;;;;;;5073845;28;20180;-51
2022/03/14 02:03:08;;;;;;;5.90;3.33;;;9.50;11.00;;;;;;5073611;28;20165;-51
2022/03/14 02:05:37;;;;;;;2.53;2.00;;;9.50;11.00;;;;;;5073535;28;20260;-51
2022/03/14 02:08:05;;;;;;;5.60;3.00;;;9.40;11.20;;;;;;5073751;28;20204;-50
2022/03/14 02:10:31;;;;;;;6.05;2.58;;;9.30;11.30;;;;;;5073707;28;20170;-51
2022/03/14 02:12:57;;;;;;;3.93;2.37;;;9.30;11.30;;;;;;5072007;28;20651;-51
2022/03/14 02:15:23;;;;;;;3.03;1.90;;;9.30;11.30;;;;;;5073435;28;20161;-51
2022/03/14 02:17:48;;;;;;;3.67;3.20;;;9.30;11.30;;;;;;5073331;28;20196;-50
2022/03/14 02:20:14;;;;;;;4.57;2.83;;;9.30;11.40;;;;;;5073422;28;20247;-50
2022/03/14 02:22:40;;;;;;;8.43;2.97;;;9.30;11.40;;;;;;5073625;28;20241;-50
2022/03/14 02:25:10;;;;;;;3.10;2.77;;;9.20;11.60;;;;;;5073366;28;20171;-51
2022/03/14 02:27:37;;;;;;;7.03;2.40;;;9.10;11.80;;;;;;5073602;28;20161;-51
2022/03/14 02:30:04;;;;;;;7.20;2.60;;;9.10;11.80;;;;;;5073331;28;20192;-50
2022/03/14 02:32:29;;;;;;;4.72;3.15;;;9.00;11.70;;;;;;5072756;28;20181;-50
2022/03/14 02:34:55;;;;;;;4.40;2.03;;;9.10;11.70;;;;;;5072778;28;20193;-50
2022/03/14 02:37:21;;;;;;;9.65;4.20;;;9.10;11.70;;;;;;5073124;28;20207;-50
2022/03/14 02:39:47;;;;;;;4.18;2.35;;;9.10;11.70;;;;;;5073268;28;20258;-50
2022/03/14 02:42:13;;;;;;;4.53;1.70;;;9.10;11.80;;;;;;5073234;28;20201;-50
2022/03/14 02:44:41;;;;;;;4.10;2.97;;;9.10;11.70;;;;;;5073316;28;20404;-50
2022/03/14 02:47:08;;;;;;;3.10;2.55;;;9.10;11.80;;;;;;5073017;28;20415;-50
2022/03/14 02:49:34;;;;;;;2.78;2.13;;;9.10;11.70;;;;;;5073133;28;20218;-50
2022/03/14 02:52:00;;;;;;;4.00;2.42;;;9.10;11.70;;;;;;5073089;28;20168;-50
2022/03/14 02:54:26;;;;;;;7.80;3.53;;;9.10;11.70;;;;;;5073031;28;20223;-50
2022/03/14 02:56:52;;;;;;;5.78;3.00;;;9.00;11.70;;;;;;5073180;28;20161;-51
2022/03/14 02:59:20;;;;;;;4.93;2.73;;;9.10;11.60;;;;;;5072893;28;20192;-51
2022/03/14 03:01:46;;;;;;;3.58;2.00;;;9.10;11.60;;;;;;5071980;28;20479;-51
2022/03/14 03:04:12;;;;;;;6.60;3.08;;;9.00;11.60;;;;;;5073173;28;20180;-51
2022/03/14 03:06:38;;;;;;;5.80;3.20;;;9.00;11.80;;;;;;5074144;28;20175;-51
2022/03/14 03:09:04;;;;;;;4.55;3.03;;;8.90;11.80;;;;;;5076838;28;20184;-50
2022/03/14 03:11:33;;;;;;;3.17;2.57;;;8.90;12.20;;;;;;5076778;28;20225;-51
2022/03/14 03:14:00;;;;;;;4.53;3.17;;;8.80;12.40;;;;;;5076518;28;20628;-51
2022/03/14 03:16:26;;;;;;;4.65;2.70;;;8.70;12.50;;;;;;5076532;28;20169;-51
2022/03/14 03:18:53;;;;;;;5.47;3.08;;;8.70;12.50;;;;;;5076449;28;20187;-50
2022/03/14 03:21:18;;;;;;;3.47;2.50;;;8.70;12.40;;;;;;5076699;28;20185;-51
2022/03/14 03:23:44;;;;;;;4.20;2.60;;;8.70;12.40;;;;;;5076414;28;20521;-51
2022/03/14 03:26:10;;;;;;;6.23;3.63;;;8.70;12.50;;;;;;5076433;28;20559;-51
2022/03/14 03:28:36;;;;;;;5.13;2.70;;;8.70;12.40;;;;;;5076308;28;20159;-50
2022/03/14 03:31:10;;;;;;;5.30;2.90;;;8.70;12.60;;;;;;5076314;28;20165;-51
2022/03/14 03:33:37;;;;;;;2.45;2.10;;;8.70;12.40;;;;;;5076268;28;20559;-50
2022/03/14 03:36:07;;;;;;;4.22;2.83;;;8.70;12.30;;;;;;5076315;28;20174;-50
2022/03/14 03:38:33;;;;;;;3.75;2.22;;;8.70;12.30;;;;;;5074781;28;20203;-50
2022/03/14 03:40:59;;;;;;;4.38;3.28;;;8.70;12.50;;;;;;5076112;28;20169;-50
2022/03/14 03:43:25;;;;;;;4.57;2.53;;;8.70;12.40;;;;;;5076137;28;20534;-50
2022/03/14 03:45:51;;;;;;;4.40;2.53;;;8.70;12.40;;;;;;5074808;28;20410;-51
2022/03/14 03:48:17;;;;;;;4.80;3.40;;;8.70;12.50;;;;;;5075945;28;20830;-50
2022/03/14 03:50:46;;;;;;;5.97;3.83;;;8.70;12.60;;;;;;5075989;28;20184;-50
2022/03/14 03:53:12;;;;;;;6.22;3.47;;;8.60;12.40;;;;;;5075862;28;20209;-50
2022/03/14 03:55:38;;;;;;;6.60;3.93;;;8.50;12.80;;;;;;5075966;28;20202;-50
2022/03/14 03:58:04;;;;;;;4.35;3.08;;;8.50;12.70;;;;;;5075707;28;20197;-51
2022/03/14 04:00:30;;;;;;;5.28;2.63;;;8.40;12.70;;;;;;5075814;28;20179;-51
2022/03/14 04:02:56;;;;;;;5.93;3.57;;;8.30;13.00;;;;;;5075822;28;20189;-50
2022/03/14 04:05:22;;;;;;;4.60;3.50;;;8.30;12.80;;;;;;5075650;28;20244;-50
2022/03/14 04:07:48;;;;;;;3.77;2.43;;;8.30;12.90;;;;;;5075634;28;20167;-51
2022/03/14 04:10:15;;;;;;;5.43;2.78;;;8.20;12.70;;;;;;5075611;28;20442;-50
2022/03/14 04:12:44;;;;;;;6.80;4.00;;;8.20;12.70;;;;;;5075573;28;20264;-50
2022/03/14 04:15:10;;;;;;;4.50;2.55;;;8.20;12.80;;;;;;5075299;28;20219;-50
2022/03/14 04:17:38;;;;;;;3.85;2.28;;;8.20;12.70;;;;;;5074620;28;20216;-50
2022/03/14 04:20:05;;;;;;;2.58;2.00;;;8.20;12.80;;;;;;5075637;28;20177;-50
2022/03/14 04:22:32;;;;;;;4.75;3.55;;;8.10;13.30;;;;;;5075413;28;20172;-50
2022/03/14 04:24:59;;;;;;;3.10;2.70;;;8.10;12.90;;;;;;5075504;28;20553;-50
2022/03/14 04:27:26;;;;;;;4.05;2.80;;;8.10;13.20;;;;;;5075242;28;20172;-50
2022/03/14 04:29:51;;;;;;;5.07;3.05;;;8.00;12.90;;;;;;5075206;28;20170;-50
2022/03/14 04:32:17;;;;;;;6.83;4.00;;;8.00;13.00;;;;;;5075197;28;20173;-50
2022/03/14 04:34:44;;;;;;;5.97;3.00;;;8.00;13.10;;;;;;5075098;28;20407;-50
2022/03/14 04:37:12;;;;;;;8.45;4.38;;;8.00;13.30;;;;;;5074409;28;20595;-50
2022/03/14 04:39:38;;;;;;;7.65;3.40;;;7.90;13.80;;;;;;5074937;28;20169;-50
2022/03/14 04:42:04;;;;;;;2.30;2.10;;;8.00;13.50;;;;;;5074867;28;20190;-50
2022/03/14 04:44:30;;;;;;;7.60;3.45;;;8.00;13.50;;;;;;5074822;28;20929;-50
2022/03/14 04:46:56;;;;;;;5.20;4.23;;;8.10;13.50;;;;;;5074757;28;20174;-50
2022/03/14 04:49:21;;;;;;;3.73;2.63;;;8.20;13.60;;;;;;5074886;28;20189;-50
2022/03/14 04:51:50;;;;;;;4.53;1.87;;;8.20;13.50;;;;;;5074140;28;20537;-51
2022/03/14 04:54:16;;;;;;;4.60;2.65;;;8.20;13.20;;;;;;5074934;28;20172;-51
2022/03/14 04:56:41;;;;;;;3.40;2.43;;;8.30;13.50;;;;;;5074608;28;20198;-51
2022/03/14 04:59:07;;;;;;;4.90;2.63;;;8.30;13.40;;;;;;5074483;28;20192;-51
2022/03/14 05:01:33;;;;;;;6.97;2.70;;;8.30;13.40;;;;;;5074541;28;20184;-51
2022/03/14 05:03:59;;;;;;;4.40;3.20;;;8.30;13.40;;;;;;5074497;28;20256;-50
2022/03/14 05:06:24;;;;;;;3.80;2.37;;;8.30;13.40;;;;;;5073114;28;20165;-51
2022/03/14 05:08:50;;;;;;;8.73;3.50;;;8.30;13.40;;;;;;5074592;28;20170;-51
2022/03/14 05:11:16;;;;;;;6.70;3.33;;;8.40;13.40;;;;;;5074360;28;20770;-51
2022/03/14 05:13:41;;;;;;;3.80;2.93;;;8.30;13.60;;;;;;5074012;28;20231;-51
2022/03/14 05:16:08;;;;;;;4.70;2.87;;;8.30;13.30;;;;;;5074193;28;20161;-51
2022/03/14 05:18:34;;;;;;;9.10;3.13;;;8.40;13.10;;;;;;5074106;28;20199;-51
2022/03/14 05:21:01;;;;;;;6.45;3.50;;;8.40;13.20;;;;;;5074204;28;20233;-51
2022/03/14 05:23:28;;;;;;;5.18;3.13;;;8.50;13.10;;;;;;5074096;28;20247;-50
2022/03/14 05:25:54;;;;;;;3.33;2.22;;;8.50;13.00;;;;;;5074154;28;20187;-51
2022/03/14 05:28:20;;;;;;;3.55;2.13;;;8.60;13.00;;;;;;5072707;28;20178;-50
2022/03/14 05:30:46;;;;;;;7.70;3.63;;;8.60;13.00;;;;;;5073332;28;20222;-50
2022/03/14 05:33:11;;;;;;;9.83;3.13;;;8.60;13.10;;;;;;5074339;28;20904;-50
2022/03/14 05:35:37;;;;;;;3.80;2.80;;;8.50;13.10;;;;;;5073795;28;20631;-51
2022/03/14 05:38:03;;;;;;;3.13;2.30;;;8.60;13.00;;;;;;5073665;28;20193;-51
2022/03/14 05:40:29;;;;;;;4.40;2.67;;;8.60;13.00;;;;;;5073444;28;20241;-50
2022/03/14 05:42:55;;;;;;;7.57;3.17;;;8.60;13.00;;;;;;5073130;28;20182;-51
2022/03/14 05:45:21;;;;;;;3.30;2.63;;;8.70;12.90;;;;;;5073571;28;20187;-50
2022/03/14 05:47:47;;;;;;;7.07;3.17;;;8.70;12.90;;;;;;5072358;28;20179;-51
2022/03/14 05:50:13;;;;;;;6.05;3.25;;;8.80;12.80;;;;;;5073494;28;20431;-51
2022/03/14 05:52:39;;;;;;;3.78;2.55;;;8.80;12.90;;;;;;5072229;28;20567;-51
2022/03/14 05:55:06;;;;;;;3.63;2.20;;;8.80;12.80;;;;;;5072227;28;20172;-51
2022/03/14 05:57:33;;;;;;;5.32;3.08;;;8.80;12.80;;;;;;5073691;28;20197;-51
2022/03/14 05:59:59;;;;;;;4.10;2.95;;;8.90;12.90;;;;;;5073578;28;20653;-51
2022/03/14 06:02:25;;;;;;;5.35;2.67;;;8.90;12.80;;;;;;5073660;28;20175;-50
2022/03/14 06:04:52;;;;;;;4.85;3.55;;;9.00;12.90;;;;;;5073529;28;20175;-51
2022/03/14 06:07:19;;;;;;;4.20;2.55;;;9.00;12.70;;;;;;5073393;28;20595;-51
2022/03/14 06:09:46;;;;;;;4.00;3.08;;;9.00;12.70;;;;;;5073416;28;20248;-50
2022/03/14 06:12:12;;;;;;;4.55;2.80;;;9.10;13.30;;;;;;5073311;28;20162;-50
2022/03/14 06:14:37;;;;;;;6.07;3.50;;;9.10;12.70;;;;;;5073083;28;20218;-50
2022/03/14 06:17:03;;;;;;;5.17;2.80;;;9.20;12.60;;;;;;5073392;28;20765;-50
2022/03/14 06:19:29;;;;;;;6.63;4.43;;;9.20;12.70;;;;;;5073245;28;20598;-50
2022/03/14 06:21:55;;;;;;;4.80;3.13;;;9.40;12.70;;;;;;5073314;28;20172;-50
2022/03/14 06:24:21;;;;;;;4.00;2.33;;;9.40;12.50;;;;;;5073502;28;20180;-50
2022/03/14 06:26:46;;;;;;;3.40;2.90;;;9.50;12.50;;;;;;5073326;28;20502;-50
2022/03/14 06:29:13;;;;;;;3.20;1.80;;;9.60;12.40;;;;;;5073413;28;20310;-50
2022/03/14 06:31:39;;;;;;;4.70;3.58;;;9.70;12.30;;;;;;5071884;28;20637;-50
2022/03/14 06:34:05;;;;;;;5.87;3.20;;;9.70;12.50;;;;;;5071854;28;20249;-50
2022/03/14 06:36:30;;;;;;;4.80;2.97;;;9.80;12.50;;;;;;5073252;28;20243;-50
2022/03/14 06:38:59;;;;;;;5.17;3.63;;;9.90;12.20;;;;;;5073103;28;20553;-50
2022/03/14 06:41:26;;;;;;;5.57;2.83;;;10.00;12.30;;;;;;5075287;28;20533;-50
2022/03/14 06:43:53;;;;;;;8.63;3.10;;;10.00;12.30;;;;;;5077270;28;20181;-51
2022/03/14 06:46:19;;;;;;;5.05;2.90;;;10.10;12.40;;;;;;5077283;28;20173;-50
2022/03/14 06:48:46;;;;;;;6.78;3.75;;;10.20;12.40;;;;;;5077136;28;20161;-50
2022/03/14 06:51:13;;;;;;;4.32;2.22;;;10.30;12.40;;;;;;5076827;28;20173;-50
2022/03/14 06:53:39;;;;;;;4.80;3.03;;;10.30;12.20;;;;;;5077049;28;20214;-50
2022/03/14 06:56:05;;;;;;;6.90;3.33;;;10.30;12.10;;;;;;5076854;28;20173;-50
2022/03/14 06:58:34;;;;;;;6.85;3.97;;;10.30;12.20;;;;;;5076126;28;20971;-51
2022/03/14 07:01:00;;;;;;;5.07;3.10;;;10.50;12.20;;;;;;5076991;28;20223;-51
2022/03/14 07:03:27;;;;;;;3.47;2.50;;;10.60;12.10;;;;;;5076930;28;20171;-51
2022/03/14 07:05:53;;;;;;;3.10;2.60;;;10.60;11.80;;;;;;5076684;28;20909;-51
2022/03/14 07:08:20;;;;;;;4.63;4.15;;;10.70;12.10;;;;;;5076630;28;20241;-51
2022/03/14 07:10:45;;;;;;;5.40;3.92;;;10.90;12.20;;;;;;5076678;28;20177;-51
2022/03/14 07:13:11;;;;;;;4.30;3.03;;;11.00;11.90;;;;;;5076400;28;20167;-51
2022/03/14 07:15:37;;;;;;;5.37;3.90;;;11.00;11.80;;;;;;5075198;28;20199;-51
2022/03/14 07:18:02;;;;;;;3.27;2.87;;;11.10;11.60;;;;;;5076431;28;20188;-51
2022/03/14 07:20:28;;;;;;;6.37;3.20;;;11.20;11.70;;;;;;5076422;28;20175;-51
2022/03/14 07:22:57;;;;;;;4.87;2.70;;;11.20;11.80;;;;;;5076389;28;20911;-51
2022/03/14 07:25:25;;;;;;;3.53;2.92;;;11.30;11.70;;;;;;5076423;28;20410;-51
2022/03/14 07:27:55;;;;;;;4.70;3.08;;;11.40;11.50;;;;;;5076362;28;20172;-51
2022/03/14 07:30:22;;;;;;;5.32;3.08;;;11.50;12.00;;;;;;5076239;28;20643;-51
2022/03/14 07:32:49;;;;;;;4.35;2.25;;;11.70;11.50;;;;;;5075622;28;20255;-51
2022/03/14 07:35:15;;;;;;;8.90;4.70;;;11.80;11.70;;;;;;5076385;28;20203;-50
2022/03/14 07:37:41;;;;;;;5.20;2.95;;;11.90;11.40;;;;;;5075979;28;20668;-51
2022/03/14 07:40:09;;;;;;;5.17;2.77;;;12.00;11.00;;;;;;5076149;28;20259;-51
2022/03/14 07:42:44;;;;;;;5.07;3.78;;;12.00;11.30;;;;;;5075348;28;20855;-51
2022/03/14 07:45:12;;;;;;;5.25;2.88;;;12.10;11.30;;;;;;5075991;28;20234;-51
2022/03/14 07:47:39;;;;;;;6.18;3.08;;;12.20;11.20;;;;;;5075380;28;20235;-51
2022/03/14 07:50:06;;;;;;;8.30;4.25;;;12.30;11.20;;;;;;5075919;28;20225;-51
2022/03/14 07:52:33;;;;;;;5.40;3.50;;;12.40;10.70;;;;;;5075075;28;20184;-51
2022/03/14 07:54:59;;;;;;;7.40;4.35;;;12.40;11.20;;;;;;5076022;28;20214;-50
2022/03/14 07:57:25;;;;;;;6.27;3.80;;;12.50;11.10;;;;;;5075987;28;20628;-51
2022/03/14 07:59:51;;;;;;;3.90;3.40;;;12.60;10.90;;;;;;5074783;28;20854;-51
2022/03/14 08:02:17;;;;;;;6.65;5.00;;;12.70;11.10;;;;;;5075586;28;20176;-51
2022/03/14 08:04:43;;;;;;;3.97;2.83;;;12.90;11.10;;;;;;5076097;28;20187;-51
2022/03/14 08:07:08;;;;;;;7.63;3.37;;;13.10;10.90;;;;;;5074241;28;20415;-51
2022/03/14 08:09:34;;;;;;;5.70;3.60;;;13.30;11.00;;;;;;5074235;28;20161;-51
2022/03/14 08:12:01;;;;;;;6.57;3.00;;;13.40;10.60;;;;;;5075703;28;20256;-51
2022/03/14 08:14:27;;;;;;;3.38;2.83;;;13.50;10.80;;;;;;5075160;28;20303;-51
2022/03/14 08:16:53;;;;;;;3.90;2.97;;;13.60;10.50;;;;;;5074093;28;20172;-51
2022/03/14 08:19:20;;;;;;;6.90;3.45;;;13.80;10.60;;;;;;5075303;28;20189;-51
2022/03/14 08:21:49;;;;;;;6.70;3.92;;;13.90;10.60;;;;;;5075310;28;20200;-51
2022/03/14 08:24:14;;;;;;;5.47;4.40;;;14.00;10.20;;;;;;5075150;28;20168;-51
2022/03/14 08:26:43;;;;;;;4.53;3.30;;;13.90;10.40;;;;;;5075128;28;20177;-51
2022/03/14 08:29:08;;;;;;;12.73;3.47;;;14.00;10.60;;;;;;5074495;28;20263;-51
2022/03/14 08:31:34;;;;;;;4.03;3.63;;;14.00;10.40;;;;;;5073901;28;20298;-51
2022/03/14 08:34:01;;;;;;;6.67;3.20;;;14.10;10.00;;;;;;5075044;28;20449;-51
2022/03/14 08:36:27;;;;;;;5.05;3.72;;;14.20;10.10;;;;;;5075092;28;20172;-51
2022/03/14 08:38:53;;;;;;;4.15;3.40;;;14.40;10.60;;;;;;5075025;28;20198;-51
2022/03/14 08:41:19;;;;;;;7.18;4.32;;;14.50;10.40;;;;;;5074854;28;20521;-51
2022/03/14 08:43:45;;;;;;;9.90;5.10;;;14.50;10.50;;;;;;5074818;28;20180;-51
2022/03/14 08:46:14;;;;;;;3.65;2.88;;;14.60;9.90;;;;;;5073764;28;20410;-51
2022/03/14 08:48:40;;;;;;;5.90;3.55;;;14.70;9.70;;;;;;5074758;28;20173;-51
2022/03/14 08:51:06;;;;;;;4.90;3.00;;;14.80;10.30;;;;;;5074770;28;20175;-51
2022/03/14 08:53:32;;;;;;;4.97;3.40;;;14.90;10.20;;;;;;5074630;28;20562;-51
2022/03/14 08:56:00;;;;;;;5.47;4.00;;;15.00;10.20;;;;;;5074737;28;20195;-51
2022/03/14 08:58:26;;;;;;;6.78;3.90;;;15.20;10.30;;;;;;5074396;28;20192;-51
2022/03/14 09:00:52;;;;;;;4.70;3.63;;;15.20;9.80;;;;;;5074626;28;20172;-51
2022/03/14 09:03:17;;;;;;;4.83;3.83;;;15.30;10.20;;;;;;5074413;28;20835;-51
2022/03/14 09:05:43;;;;;;;9.10;4.20;;;15.40;9.90;;;;;;5073686;28;20222;-51
2022/03/14 09:08:09;;;;;;;6.67;3.70;;;15.50;9.90;;;;;;5074601;28;20240;-51
2022/03/14 09:10:37;;;;;;;11.40;4.40;;;15.60;10.30;;;;;;5073667;28;20208;-51
2022/03/14 09:13:04;;;;;;;5.95;4.03;;;15.80;9.90;;;;;;5074373;28;20252;-51
2022/03/14 09:15:30;;;;;;;5.82;3.60;;;15.80;9.20;;;;;;5074086;28;20224;-51
2022/03/14 09:17:59;;;;;;;4.97;3.70;;;15.90;9.90;;;;;;5074201;28;20231;-51
2022/03/14 09:20:26;;;;;;;6.35;4.03;;;16.10;10.00;;;;;;5074057;28;20187;-50
2022/03/14 09:22:53;;;;;;;6.03;3.90;;;16.20;9.50;;;;;;5074390;28;20181;-50
2022/03/14 09:25:20;;;;;;;6.22;3.85;;;16.30;9.70;;;;;;5074101;28;20164;-50
2022/03/14 09:27:47;;;;;;;7.72;4.10;;;16.50;9.10;;;;;;5074046;28;20553;-51
2022/03/14 09:30:14;;;;;;;5.75;3.70;;;16.60;10.10;;;;;;5074167;28;20184;-51
2022/03/14 09:32:41;;;;;;;6.15;4.28;;;16.60;9.80;;;;;;5074079;28;20169;-50
2022/03/14 09:35:07;;;;;;;4.57;3.40;;;16.80;9.50;;;;;;5074017;28;20215;-50
2022/03/14 09:37:35;;;;;;;4.25;3.55;;;16.80;9.80;;;;;;5074008;28;20177;-51
2022/03/14 09:40:05;;;;;;;8.57;5.05;;;16.90;9.80;;;;;;5073872;28;20164;-50
2022/03/14 09:42:36;;;;;;;4.40;3.30;;;16.90;9.20;;;;;;5073777;28;20173;-50
2022/03/14 09:45:04;;;;;;;6.78;4.38;;;16.80;9.10;;;;;;5073834;28;20210;-51
2022/03/14 09:47:30;;;;;;;9.27;4.43;;;16.70;9.30;;;;;;5073689;28;20211;-50
2022/03/14 09:49:58;;;;;;;4.72;4.00;;;16.60;9.10;;;;;;5073718;28;20176;-50
2022/03/14 09:52:25;;;;;;;5.43;3.88;;;16.50;9.40;;;;;;5073654;28;20165;-50
2022/03/14 09:54:51;;;;;;;7.15;3.65;;;16.30;9.40;;;;;;5073662;28;20231;-51
2022/03/14 09:57:17;;;;;;;4.53;4.03;;;16.30;9.90;;;;;;5073500;28;20565;-50
2022/03/14 09:59:45;;;;;;;4.43;3.20;;;16.30;9.70;;;;;;5073466;28;20197;-51
2022/03/14 10:02:14;;;;;;;8.43;3.53;;;16.30;10.00;;;;;;5073496;28;20565;-50
2022/03/14 10:04:40;;;;;;;7.78;3.88;;;16.30;9.60;;;;;;5073462;28;20218;-51
2022/03/14 10:07:07;;;;;;;7.77;4.60;;;16.20;9.70;;;;;;5073426;28;20164;-50
2022/03/14 10:09:36;;;;;;;3.80;3.40;;;16.20;10.20;;;;;;5073368;28;20574;-51
2022/03/14 10:12:04;;;;;;;6.35;3.80;;;16.20;9.80;;;;;;5073388;28;20662;-50
2022/03/14 10:14:30;;;;;;;6.85;3.90;;;16.40;10.10;;;;;;5073518;28;20708;-51
2022/03/14 10:16:56;;;;;;;6.53;4.25;;;16.70;9.80;;;;;;5073110;28;20177;-50
2022/03/14 10:19:34;;;;;;;6.57;4.78;;;16.90;9.80;;;;;;5073229;28;20720;-50
2022/03/14 10:22:18;;;;;;;7.07;4.35;;;17.10;9.30;;;;;;5072022;28;20176;-50
2022/03/14 10:24:46;;;;;;;6.70;3.85;;;17.30;9.70;;;;;;5073308;28;20160;-50
2022/03/14 10:27:17;;;;;;;5.70;3.90;;;17.60;10.00;;;;;;5073237;28;20175;-50
2022/03/14 10:29:45;;;;;;;4.65;4.20;;;18.00;10.20;;;;;;5073284;28;20214;-50
2022/03/14 10:32:28;;;;;;;7.95;5.35;;;18.30;9.90;;;;;;5073168;28;20255;-50
2022/03/14 10:34:57;;;;;;;7.25;4.13;;;18.30;9.60;;;;;;5073389;28;20185;-50
2022/03/14 10:37:27;;;;;;;7.93;5.30;;;18.30;9.30;;;;;;5072992;28;20230;-50
2022/03/14 10:40:02;;;;;;;7.35;3.65;;;18.20;9.50;;;;;;5073194;28;20204;-50
2022/03/14 10:42:28;;;;;;;6.03;3.80;;;18.10;9.30;;;;;;5073177;28;20151;-50
2022/03/14 10:44:55;;;;;;;7.43;5.10;;;18.00;9.80;;;;;;5073100;28;20501;-50
2022/03/14 10:47:24;;;;;;;14.10;4.20;;;18.00;9.60;;;;;;5073054;28;20203;-50
2022/03/14 10:49:50;;;;;;;7.97;5.03;;;17.90;9.70;;;;;;5073047;28;20333;-50
2022/03/14 10:52:20;;;;;;;8.20;4.70;;;17.90;9.50;;;;;;5072946;28;20173;-50
2022/03/14 10:54:46;;;;;;;7.78;5.70;;;17.90;10.30;;;;;;5072803;28;20637;-50
2022/03/14 10:57:19;;;;;;;7.10;5.35;;;17.80;9.70;;;;;;5072127;28;20185;-50
2022/03/14 10:59:47;;;;;;;5.95;4.70;;;17.80;10.40;;;;;;5072838;28;20292;-50
2022/03/14 11:02:24;;;;;;;9.52;5.20;;;17.90;9.70;;;;;;5071555;28;20180;-50
2022/03/14 11:04:57;;;;;;;6.95;4.10;;;17.70;8.80;;;;;;5072874;28;20609;-50
2022/03/14 11:07:32;;;;;;;6.72;4.20;;;17.60;8.70;;;;;;5071572;28;20173;-50
2022/03/14 11:10:00;;;;;;;5.80;4.15;;;17.60;9.20;;;;;;5072370;28;20184;-50
2022/03/14 11:12:30;;;;;;;8.77;3.80;;;17.50;9.00;;;;;;5072833;28;20161;-50
2022/03/14 11:14:56;;;;;;;7.97;4.32;;;17.40;9.40;;;;;;5072576;28;20208;-50
2022/03/14 11:17:30;;;;;;;8.32;4.35;;;17.30;9.60;;;;;;5072674;28;20521;-50
2022/03/14 11:19:58;;;;;;;7.15;4.95;;;17.30;9.40;;;;;;5072822;28;20194;-50
2022/03/14 11:22:27;;;;;;;7.35;4.30;;;17.40;9.70;;;;;;5072974;28;20618;-50
2022/03/14 11:24:55;;;;;;;5.93;5.28;;;17.40;10.20;;;;;;5072798;28;20167;-50
2022/03/14 11:27:24;;;;;;;5.45;4.25;;;17.40;9.30;;;;;;5073225;28;20174;-50
2022/03/14 11:29:53;;;;;;;9.02;5.47;;;17.40;9.50;;;;;;5076331;28;20168;-50
2022/03/14 11:32:19;;;;;;;6.60;3.40;;;17.40;9.50;;;;;;5076209;28;20537;-50
2022/03/14 11:34:46;;;;;;;6.28;4.80;;;17.20;8.90;;;;;;5076284;28;20216;-50
2022/03/14 11:37:13;;;;;;;12.88;5.28;;;16.90;9.50;;;;;;5076182;28;20248;-50
2022/03/14 11:39:39;;;;;;;6.63;4.78;;;16.90;9.80;;;;;;5076142;28;20188;-50
2022/03/14 11:42:05;;;;;;;7.60;5.40;;;17.00;9.90;;;;;;5076088;28;20169;-50
2022/03/14 11:44:32;;;;;;;8.95;4.72;;;17.00;9.60;;;;;;5075976;28;20210;-50
2022/03/14 11:46:58;;;;;;;7.75;4.30;;;16.90;9.50;;;;;;5075962;28;20245;-50
2022/03/14 11:49:27;;;;;;;8.13;5.55;;;16.90;9.50;;;;;;5075816;28;20632;-49
2022/03/14 11:52:18;;;;;;;8.23;4.55;;;16.90;9.50;;;;;;5075991;28;20498;-50
2022/03/14 11:55:02;;;;;;;9.80;4.93;;;16.80;9.30;;;;;;5075827;28;20641;-50
2022/03/14 11:57:43;;;;;;;6.30;4.47;;;16.80;9.50;;;;;;5075747;28;20152;-50
2022/03/14 12:00:33;;;;;;;7.78;4.85;;;17.00;9.90;;;;;;5075829;28;20157;-50
2022/03/14 12:03:01;;;;;;;5.65;5.07;;;17.10;10.00;;;;;;5075810;28;20616;-50
2022/03/14 12:05:33;;;;;;;7.57;4.13;;;16.90;9.90;;;;;;5075770;28;20298;-50
2022/03/14 12:08:22;;;;;;;5.53;3.60;;;17.00;9.80;;;;;;5075653;28;20161;-50
2022/03/14 12:10:47;;;;;;;6.85;3.72;;;17.00;9.50;;;;;;5065431;28;20656;-50
2022/03/14 12:13:42;;;;;;;5.63;4.40;;;16.90;9.80;;;;;;5075411;28;20175;-50
2022/03/14 12:16:45;;;;;;;8.00;5.00;;;16.90;9.50;;;;;;5075559;28;20240;-51
2022/03/14 12:19:38;;;;;;;13.13;5.72;;;16.80;9.40;;;;;;5053151;28;20314;-51
2022/03/14 12:22:05;;;;;;;6.25;4.88;;;16.80;9.50;;;;;;5053284;28;20220;-51
2022/03/14 12:24:36;;;;;;;6.53;5.57;;;16.90;9.80;;;;;;5052535;28;20189;-51
2022/03/14 12:27:14;;;;;;;7.90;4.93;;;16.90;10.10;;;;;;5053028;28;20262;-51
2022/03/14 12:29:42;;;;;;;6.28;5.00;;;16.80;10.20;;;;;;5036908;28;20168;-51
2022/03/14 12:32:26;;;;;;;5.60;4.30;;;17.00;10.30;;;;;;5053106;28;20252;-51
2022/03/14 12:35:01;;;;;;;5.93;5.32;;;17.30;10.80;;;;;;5052964;28;20208;-51
2022/03/14 12:37:52;;;;;;;4.88;4.35;;;17.40;10.70;;;;;;5052869;28;20169;-51
2022/03/14 12:40:20;;;;;;;5.45;3.53;;;17.50;10.80;;;;;;5052817;28;20176;-51
2022/03/14 12:42:49;;;;;;;7.00;4.90;;;17.50;10.80;;;;;;5052833;28;20269;-51
2022/03/14 12:45:29;;;;;;;8.10;5.10;;;17.60;10.70;;;;;;5052715;28;20175;-51
2022/03/14 12:48:02;;;;;;;10.88;8.77;;;17.40;11.10;;;;;;5052937;28;20203;-51
2022/03/14 12:50:43;;;;;;;8.20;4.75;;;17.40;11.10;;;;;;5052841;28;20177;-51
2022/03/14 12:53:15;;;;;;;6.80;5.00;;;17.50;11.60;;;;;;5053592;28;20202;-52
2022/03/14 12:55:45;;;;;;;9.52;6.50;;;17.50;11.30;;;;;;5054685;28;20170;-51